Kuujjuarapik Airport
CYGW : now visible

Airfield :











YOU CAN JOIN US ON...

 
LOGIN :

Register | Disclaimer

   EN    FR    IT 

 









Legend :    VFR   Marginal VFR   IFR   Intensive IFR   Very Intensive IFR
Visi :
Ceiling :
>= 8 km
>= 3000ft
5 to 8 km
1000 to 3000 ft
1500m to 5 km
500 to 1000 ft
800 to 1500m
200 to 500 ft
< 800m
< 200 ft
Symbols :   Thunderstorms  Fog  Heavy snow  Heavy precipitations  Wind > 20 kt






- Airport Elevation : 34 ft
- IATA code : YGW


CYGW - Kuujjuarapik

CURRENT METAR :
  • 291500Z AUTO 18005KT 9SM OVC006 M19/M21 A3034 RMK SLP279

EXPIRED METARs :
  • 291445Z AUTO 18006KT 9SM OVC006 M19/M21 A3035 RMK SLP281
  • 291435Z AUTO 17006KT 7SM -SN OVC006 M19/M21 A3035 RMK SLP280
  • 291428Z AUTO 17006KT 9SM OVC006 M18/M20 A3035 RMK SLP281
  • 291411Z AUTO 18007KT 6SM -SN OVC004 M18/M20 A3035 RMK SLP281
  • 291358Z AUTO 17007KT 5SM BR OVC006 M18/M20 A3035 RMK SLP280
  • 291331Z AUTO 18007KT 9SM OVC006 M18/M19 A3035 RMK SLP280
  • 291312Z AUTO 18006KT 9SM OVC004 M17/M19 A3035 RMK SLP280
  • 291302Z AUTO 18006KT 9SM -SN OVC004 M17/M19 A3035 RMK SLP281

TAF AMD TAF CYGW
Valid from the 29 at 14:00 until the 30 at 00:00 UTC


291452Z 2914/2924 17006KT P6SM BKN006
TEMPO 2914/2924 SCT006 RMK FCST BASED ON AUTO OBS. NXT FCST BY 291800Z



MET'MAP, your aeronautical weather chart ! - Copyright ORBIFLY December 2007 - Disclaimer

ORBIFLY MET'MAP TEAM :

Programming & Development : Alexandra Zaïnal
Concept & original design : Baudouin d'Aumeries
Assistance for programming : Marc-Olivier Méhu
Technical & hardware support : Manuel Goepfert

Contact : metmap@orbifly.com




SOURCES & CREDITS :

   NOAA       Earth
Advisory